createdAt,value
2019-03-09T00:00:49.219Z,4.80
2019-03-09T00:01:49.191Z,4.30
2019-03-09T00:02:49.171Z,4.80
2019-03-09T00:03:49.162Z,4.70
2019-03-09T00:04:49.144Z,4.60
2019-03-09T00:05:49.187Z,4.80
2019-03-09T00:06:49.139Z,4.20
2019-03-09T00:07:49.142Z,4.60
2019-03-09T00:08:49.218Z,4.60
2019-03-09T00:09:49.092Z,5.00
2019-03-09T00:10:49.081Z,4.20
2019-03-09T00:11:49.071Z,4.50
2019-03-09T00:12:49.076Z,4.90
2019-03-09T00:13:49.083Z,4.30
2019-03-09T00:14:49.040Z,4.70
2019-03-09T00:15:49.031Z,4.70
2019-03-09T00:16:49.016Z,5.20
2019-03-09T00:17:49.069Z,6.00
2019-03-09T00:18:49.015Z,4.50
2019-03-09T00:19:49.027Z,4.80
2019-03-09T00:20:48.972Z,4.20
2019-03-09T00:21:48.969Z,4.90
2019-03-09T00:22:49.005Z,4.60
2019-03-09T00:23:49.258Z,5.60
2019-03-09T00:24:49.054Z,5.40
2019-03-09T00:25:48.919Z,4.80
2019-03-09T00:26:48.903Z,4.50
2019-03-09T00:27:48.897Z,5.20
2019-03-09T00:28:48.892Z,4.70
2019-03-09T00:29:48.880Z,5.10
2019-03-09T00:30:48.903Z,4.90
2019-03-09T00:31:48.852Z,4.40
2019-03-09T00:32:48.842Z,4.30
2019-03-09T00:33:48.867Z,4.90
2019-03-09T00:34:48.824Z,4.10
2019-03-09T00:35:48.834Z,4.60
2019-03-09T00:36:48.793Z,4.90
2019-03-09T00:37:48.796Z,5.50
2019-03-09T00:38:48.780Z,4.80
2019-03-09T00:39:48.768Z,4.30
2019-03-09T00:40:48.757Z,4.30
2019-03-09T00:41:48.768Z,4.80
2019-03-09T00:42:48.737Z,4.50
2019-03-09T00:43:48.726Z,4.40
2019-03-09T00:44:48.710Z,4.80
2019-03-09T00:45:48.690Z,4.60
2019-03-09T00:46:48.690Z,4.70
2019-03-09T00:47:48.669Z,4.10
2019-03-09T00:48:48.660Z,4.60
2019-03-09T00:49:48.646Z,4.60
2019-03-09T00:50:48.638Z,5.40
2019-03-09T00:51:48.625Z,6.00
2019-03-09T00:52:48.627Z,6.60
2019-03-09T00:53:48.606Z,5.00
2019-03-09T00:54:48.606Z,4.50
2019-03-09T00:55:48.595Z,4.80
2019-03-09T00:56:48.572Z,4.40
2019-03-09T00:57:48.571Z,4.60
2019-03-09T00:58:48.568Z,4.50
2019-03-09T00:59:48.566Z,4.00
2019-03-09T01:00:48.555Z,4.90
2019-03-09T01:01:48.530Z,5.10
2019-03-09T01:02:48.510Z,4.70
2019-03-09T01:03:48.498Z,5.20
2019-03-09T01:04:48.507Z,4.30
2019-03-09T01:05:48.487Z,4.90
2019-03-09T01:06:48.468Z,4.70
2019-03-09T01:07:48.469Z,4.60
2019-03-09T01:08:48.451Z,5.10
2019-03-09T01:09:48.443Z,4.40
2019-03-09T01:10:48.431Z,4.40
2019-03-09T01:11:48.419Z,5.00
2019-03-09T01:12:48.409Z,5.00
2019-03-09T01:13:48.401Z,4.90
2019-03-09T01:14:48.403Z,4.70
2019-03-09T01:15:48.383Z,5.50
2019-03-09T01:16:48.362Z,5.20
2019-03-09T01:17:48.353Z,5.20
2019-03-09T01:18:48.405Z,5.40
2019-03-09T01:19:48.338Z,5.20
2019-03-09T01:20:48.313Z,5.30
2019-03-09T01:21:48.320Z,5.00
2019-03-09T01:22:48.316Z,5.10
2019-03-09T01:23:48.286Z,4.80
2019-03-09T01:24:48.290Z,5.00
2019-03-09T01:25:48.279Z,5.50
2019-03-09T01:26:48.290Z,5.10
2019-03-09T01:27:48.328Z,5.30
2019-03-09T01:28:48.240Z,4.40
2019-03-09T01:29:48.225Z,4.80
2019-03-09T01:30:48.219Z,5.60
2019-03-09T01:31:48.208Z,4.60
2019-03-09T01:32:48.201Z,6.10
2019-03-09T01:33:48.192Z,5.30
2019-03-09T01:34:48.166Z,5.20
2019-03-09T01:35:48.152Z,5.80
2019-03-09T01:36:48.161Z,5.60
2019-03-09T01:37:48.146Z,6.60
2019-03-09T01:38:48.169Z,5.60
2019-03-09T01:39:48.131Z,5.70
2019-03-09T01:40:48.108Z,5.90
2019-03-09T01:41:48.122Z,5.80
2019-03-09T01:42:48.124Z,6.60
2019-03-09T01:43:48.136Z,5.70
2019-03-09T01:44:48.086Z,5.90
2019-03-09T01:45:48.051Z,6.10
2019-03-09T01:46:48.039Z,5.70
2019-03-09T01:47:48.063Z,6.40
2019-03-09T01:48:48.030Z,6.20
2019-03-09T01:49:48.016Z,6.50
2019-03-09T01:50:48.003Z,5.50
2019-03-09T01:51:47.984Z,5.70
2019-03-09T01:52:47.978Z,5.90
2019-03-09T01:53:47.962Z,6.10
2019-03-09T01:54:47.953Z,6.10
2019-03-09T01:55:48.056Z,5.90
2019-03-09T01:56:47.950Z,6.60
2019-03-09T01:57:47.925Z,5.80
2019-03-09T01:58:47.947Z,6.20
2019-03-09T01:59:47.897Z,6.50
2019-03-09T02:00:47.900Z,5.80
2019-03-09T02:01:47.889Z,6.50
2019-03-09T02:02:47.873Z,6.20
2019-03-09T02:03:47.869Z,6.30
2019-03-09T02:04:47.852Z,6.40
2019-03-09T02:05:47.838Z,6.40
2019-03-09T02:06:47.829Z,6.90
2019-03-09T02:07:47.818Z,6.80
2019-03-09T02:08:47.804Z,6.20
2019-03-09T02:09:47.789Z,6.30
2019-03-09T02:10:47.780Z,6.90
2019-03-09T02:11:47.770Z,6.50
2019-03-09T02:12:47.765Z,6.20
2019-03-09T02:13:47.767Z,6.90
2019-03-09T02:14:47.741Z,6.60
2019-03-09T02:15:47.726Z,6.30
2019-03-09T02:16:47.744Z,6.60
2019-03-09T02:17:47.701Z,5.90
2019-03-09T02:18:47.708Z,6.90
2019-03-09T02:19:47.669Z,6.80
2019-03-09T02:20:47.674Z,6.50
2019-03-09T02:21:47.663Z,6.80
2019-03-09T02:22:47.646Z,6.10
2019-03-09T02:23:47.640Z,6.20
2019-03-09T02:24:47.640Z,6.60
2019-03-09T02:25:47.624Z,7.40
2019-03-09T02:26:47.608Z,7.10
2019-03-09T02:27:47.617Z,6.40
2019-03-09T02:28:47.592Z,6.60
2019-03-09T02:29:47.574Z,6.40
2019-03-09T02:30:47.570Z,6.30
2019-03-09T02:31:47.597Z,6.50
2019-03-09T02:32:47.540Z,6.40
2019-03-09T02:33:47.562Z,7.00
2019-03-09T02:34:47.525Z,6.50
2019-03-09T02:35:47.538Z,6.40
2019-03-09T02:36:47.529Z,6.30
2019-03-09T02:37:47.483Z,6.50
2019-03-09T02:38:47.469Z,6.50
2019-03-09T02:39:47.551Z,6.90
2019-03-09T02:40:47.469Z,6.50
2019-03-09T02:41:47.458Z,6.60
2019-03-09T02:42:47.429Z,6.80
2019-03-09T02:43:47.440Z,6.60
2019-03-09T02:44:47.410Z,6.70
2019-03-09T02:45:47.453Z,6.60
2019-03-09T02:46:47.496Z,6.40
2019-03-09T02:47:47.383Z,6.40
2019-03-09T02:48:47.363Z,6.70
2019-03-09T02:49:47.428Z,5.80
2019-03-09T02:50:47.354Z,6.70
2019-03-09T02:51:47.340Z,6.60
2019-03-09T02:52:47.324Z,7.00
2019-03-09T02:53:47.320Z,7.00
2019-03-09T02:54:47.296Z,6.70
2019-03-09T02:55:47.286Z,6.70
2019-03-09T02:56:47.281Z,6.90
2019-03-09T02:57:47.292Z,6.50
2019-03-09T02:58:47.272Z,6.80
2019-03-09T02:59:47.243Z,7.00
2019-03-09T03:00:47.230Z,6.30
2019-03-09T03:01:47.219Z,6.10
2019-03-09T03:02:47.219Z,6.60
2019-03-09T03:03:47.206Z,6.10
2019-03-09T03:04:47.198Z,6.60
2019-03-09T03:05:47.177Z,6.50
2019-03-09T03:06:47.176Z,6.60
2019-03-09T03:07:47.158Z,6.70
2019-03-09T03:08:47.160Z,6.40
2019-03-09T03:09:47.140Z,6.40
2019-03-09T03:10:47.137Z,6.80
2019-03-09T03:11:47.121Z,6.80
2019-03-09T03:12:47.116Z,6.90
2019-03-09T03:13:47.097Z,6.10
2019-03-09T03:14:47.155Z,6.70
2019-03-09T03:15:47.077Z,7.30
2019-03-09T03:16:47.058Z,6.50
2019-03-09T03:17:47.083Z,6.00
2019-03-09T03:18:47.065Z,6.50
2019-03-09T03:19:47.031Z,6.30
2019-03-09T03:20:47.015Z,6.50
2019-03-09T03:21:47.012Z,6.70
2019-03-09T03:22:46.999Z,6.20
2019-03-09T03:23:46.988Z,6.50
2019-03-09T03:24:46.986Z,7.20
2019-03-09T03:25:46.967Z,6.20
2019-03-09T03:26:46.963Z,6.50
2019-03-09T03:27:46.972Z,6.80
2019-03-09T03:28:46.942Z,6.20
2019-03-09T03:29:46.920Z,6.50
2019-03-09T03:30:46.912Z,6.70
2019-03-09T03:31:46.922Z,6.30
2019-03-09T03:32:46.925Z,6.30
2019-03-09T03:33:46.872Z,6.20
2019-03-09T03:34:46.864Z,6.00
2019-03-09T03:35:46.848Z,6.10
2019-03-09T03:36:46.850Z,6.90
2019-03-09T03:37:46.832Z,6.10
2019-03-09T03:38:46.839Z,6.60
2019-03-09T03:39:46.807Z,6.90
2019-03-09T03:40:46.794Z,5.90
2019-03-09T03:41:46.794Z,6.50
2019-03-09T03:42:46.790Z,7.10
2019-03-09T03:43:46.780Z,6.30
2019-03-09T03:44:46.783Z,5.90
2019-03-09T03:45:46.811Z,6.10
2019-03-09T03:46:46.734Z,6.60
2019-03-09T03:47:46.728Z,6.10
2019-03-09T03:48:46.714Z,6.50
2019-03-09T03:49:46.710Z,6.20
2019-03-09T03:50:46.716Z,6.10
2019-03-09T03:51:46.695Z,6.10
2019-03-09T03:52:46.675Z,6.70
2019-03-09T03:53:46.678Z,6.50
2019-03-09T03:54:46.647Z,6.00
2019-03-09T03:55:46.650Z,6.10
2019-03-09T03:56:47.582Z,6.80
2019-03-09T03:57:46.617Z,5.90
2019-03-09T03:58:46.611Z,5.70
2019-03-09T03:59:46.602Z,5.90
2019-03-09T04:00:46.587Z,5.80
2019-03-09T04:01:46.578Z,6.00
2019-03-09T04:02:46.557Z,6.60
2019-03-09T04:03:46.563Z,5.60
2019-03-09T04:04:46.538Z,5.80
2019-03-09T04:05:46.534Z,5.50
2019-03-09T04:06:46.530Z,5.90
2019-03-09T04:07:46.539Z,6.40
2019-03-09T04:08:46.493Z,6.00
2019-03-09T04:09:46.483Z,5.50
2019-03-09T04:10:46.477Z,5.60
2019-03-09T04:11:46.470Z,5.50
2019-03-09T04:12:46.542Z,5.90
2019-03-09T04:13:46.453Z,5.80
2019-03-09T04:14:46.429Z,5.70
2019-03-09T04:15:46.415Z,6.20
2019-03-09T04:16:46.419Z,6.00
2019-03-09T04:17:46.401Z,6.40
2019-03-09T04:18:46.409Z,6.20
2019-03-09T04:19:46.416Z,5.60
2019-03-09T04:20:46.361Z,5.40
2019-03-09T04:21:46.415Z,6.30
2019-03-09T04:22:46.355Z,5.50
2019-03-09T04:23:46.337Z,5.10
2019-03-09T04:24:46.332Z,5.60
2019-03-09T04:25:46.306Z,5.50
2019-03-09T04:26:46.300Z,5.90
2019-03-09T04:27:46.290Z,6.10
2019-03-09T04:28:46.301Z,5.60
2019-03-09T04:29:46.271Z,5.30
2019-03-09T04:30:46.268Z,6.00
2019-03-09T04:31:46.243Z,5.90
2019-03-09T04:32:46.233Z,5.50
2019-03-09T04:33:46.224Z,5.50
2019-03-09T04:34:46.226Z,5.60
2019-03-09T04:35:46.248Z,5.40
2019-03-09T04:36:46.191Z,5.50
2019-03-09T04:37:46.185Z,5.70
2019-03-09T04:38:46.176Z,5.50
2019-03-09T04:39:46.166Z,5.40
2019-03-09T04:40:46.148Z,5.60
2019-03-09T04:41:46.152Z,5.60
2019-03-09T04:42:46.147Z,5.70
2019-03-09T04:43:46.119Z,6.30
2019-03-09T04:44:46.109Z,5.20
2019-03-09T04:45:46.096Z,5.30
2019-03-09T04:46:46.090Z,4.70
2019-03-09T04:47:46.078Z,4.90
2019-03-09T04:48:46.060Z,5.50
2019-03-09T04:49:46.060Z,5.10
2019-03-09T04:50:46.044Z,4.80
2019-03-09T04:51:46.036Z,5.30
2019-03-09T04:52:46.053Z,5.50
2019-03-09T04:53:46.022Z,4.90
2019-03-09T04:54:46.000Z,5.00
2019-03-09T04:55:45.999Z,5.30
2019-03-09T04:56:45.969Z,5.40
2019-03-09T04:57:45.973Z,5.30
2019-03-09T04:58:45.982Z,5.80
2019-03-09T04:59:45.941Z,5.20
2019-03-09T05:00:45.935Z,5.20
2019-03-09T05:01:45.955Z,5.70
2019-03-09T05:02:45.914Z,5.30
2019-03-09T05:03:45.909Z,5.10
2019-03-09T05:04:45.896Z,5.20
2019-03-09T05:05:45.884Z,5.40
2019-03-09T05:06:45.867Z,5.00
2019-03-09T05:07:45.852Z,5.40
2019-03-09T05:08:45.866Z,5.30
2019-03-09T05:09:45.941Z,5.20
2019-03-09T05:10:45.835Z,5.30
2019-03-09T05:11:45.852Z,5.20
2019-03-09T05:12:45.797Z,5.60
2019-03-09T05:13:45.789Z,5.00
2019-03-09T05:14:45.783Z,5.40
2019-03-09T05:15:45.779Z,5.20
2019-03-09T05:16:45.757Z,5.40
2019-03-09T05:17:45.756Z,5.90
2019-03-09T05:18:45.729Z,5.90
2019-03-09T05:19:45.726Z,5.30
2019-03-09T05:20:45.768Z,5.10
2019-03-09T05:21:45.723Z,5.40
2019-03-09T05:22:45.693Z,5.90
2019-03-09T05:23:45.698Z,5.20
2019-03-09T05:24:45.686Z,5.70
2019-03-09T05:25:45.652Z,5.40
2019-03-09T05:26:45.658Z,5.60
2019-03-09T05:27:45.634Z,5.40
2019-03-09T05:28:45.634Z,5.00
2019-03-09T05:29:45.613Z,5.00
2019-03-09T05:30:45.630Z,5.30
2019-03-09T05:31:45.602Z,5.20
2019-03-09T05:32:45.636Z,4.90
2019-03-09T05:33:45.604Z,5.40
2019-03-09T05:34:45.568Z,5.90
2019-03-09T05:35:45.578Z,5.40
2019-03-09T05:36:45.540Z,4.70
2019-03-09T05:37:45.533Z,5.30
2019-03-09T05:38:45.578Z,5.50
2019-03-09T05:39:45.507Z,5.50
2019-03-09T05:40:45.493Z,5.20
2019-03-09T05:41:45.491Z,5.20
2019-03-09T05:42:45.468Z,5.60
2019-03-09T05:43:45.466Z,5.40
2019-03-09T05:44:45.474Z,5.40
2019-03-09T05:45:45.474Z,4.90
2019-03-09T05:46:45.452Z,5.00
2019-03-09T05:47:45.415Z,5.00
2019-03-09T05:48:45.405Z,5.80
2019-03-09T05:49:45.427Z,5.30
2019-03-09T05:50:45.386Z,6.10
2019-03-09T05:51:45.379Z,4.90
2019-03-09T05:52:45.368Z,5.20
2019-03-09T05:53:45.361Z,5.50
2019-03-09T05:54:45.349Z,6.00
2019-03-09T05:55:45.343Z,5.80
2019-03-09T05:56:45.375Z,5.00
2019-03-09T05:57:45.319Z,5.70
2019-03-09T05:58:45.293Z,5.30
2019-03-09T05:59:45.289Z,5.60
2019-03-09T06:00:45.283Z,6.00
2019-03-09T06:01:45.505Z,5.40
2019-03-09T06:02:45.340Z,4.90
2019-03-09T06:03:45.241Z,6.20
2019-03-09T06:04:45.239Z,5.20
2019-03-09T06:05:45.244Z,5.30
2019-03-09T06:06:45.218Z,5.60
2019-03-09T06:07:45.200Z,5.80
2019-03-09T06:08:45.204Z,5.50
2019-03-09T06:09:45.178Z,5.10
2019-03-09T06:10:45.172Z,5.70
2019-03-09T06:11:45.152Z,5.00
2019-03-09T06:12:45.172Z,5.30
2019-03-09T06:13:45.133Z,4.80
2019-03-09T06:14:45.122Z,6.30
2019-03-09T06:15:45.112Z,5.80
2019-03-09T06:16:45.112Z,5.30
2019-03-09T06:17:45.090Z,5.40
2019-03-09T06:18:45.100Z,5.30
2019-03-09T06:19:45.098Z,5.30
2019-03-09T06:20:45.091Z,5.10
2019-03-09T06:21:45.044Z,6.20
2019-03-09T06:22:45.047Z,5.50
2019-03-09T06:23:45.056Z,5.50
2019-03-09T06:24:45.023Z,5.50
2019-03-09T06:25:45.046Z,5.10
2019-03-09T06:26:44.994Z,5.40
2019-03-09T06:27:44.977Z,5.20
2019-03-09T06:28:44.974Z,5.60
2019-03-09T06:29:44.967Z,5.30
2019-03-09T06:30:44.961Z,5.40
2019-03-09T06:31:46.147Z,5.20
2019-03-09T06:32:44.927Z,5.30
2019-03-09T06:33:44.918Z,4.90
2019-03-09T06:34:44.915Z,5.00
2019-03-09T06:35:44.916Z,5.40
2019-03-09T06:36:44.886Z,4.90
2019-03-09T06:37:44.877Z,4.60
2019-03-09T06:38:44.861Z,5.10
2019-03-09T06:39:44.855Z,5.10
2019-03-09T06:40:44.853Z,5.30
2019-03-09T06:41:44.839Z,5.10
2019-03-09T06:42:44.816Z,4.50
2019-03-09T06:43:44.821Z,4.60
2019-03-09T06:44:44.797Z,4.90
2019-03-09T06:45:44.805Z,4.70
2019-03-09T06:46:44.789Z,4.90
2019-03-09T06:47:44.764Z,4.40
2019-03-09T06:48:44.753Z,4.80
2019-03-09T06:49:44.740Z,4.60
2019-03-09T06:50:44.755Z,4.60
2019-03-09T06:51:44.739Z,5.70
2019-03-09T06:52:44.737Z,5.00
2019-03-09T06:53:44.700Z,4.90
2019-03-09T06:54:44.688Z,5.20
2019-03-09T06:55:44.678Z,4.90
2019-03-09T06:56:44.682Z,4.80
2019-03-09T06:57:44.660Z,5.00
2019-03-09T06:58:44.670Z,5.30
2019-03-09T06:59:44.636Z,5.20
2019-03-09T07:00:44.628Z,5.30
2019-03-09T07:01:44.615Z,4.40
2019-03-09T07:02:44.626Z,4.70
2019-03-09T07:03:44.727Z,4.90
2019-03-09T07:04:44.605Z,5.20
2019-03-09T07:05:44.567Z,4.60
2019-03-09T07:06:44.557Z,5.10
2019-03-09T07:07:44.554Z,4.50
2019-03-09T07:08:44.635Z,4.40
2019-03-09T07:09:44.541Z,4.70
2019-03-09T07:10:44.532Z,5.00
2019-03-09T07:11:44.500Z,4.60
2019-03-09T07:12:44.502Z,4.40
2019-03-09T07:13:52.385Z,4.70
2019-03-09T07:14:45.562Z,4.70
2019-03-09T07:15:44.472Z,4.90
2019-03-09T07:16:44.450Z,4.90
2019-03-09T07:17:44.439Z,4.60
2019-03-09T07:18:44.432Z,4.50
2019-03-09T07:19:44.439Z,4.20
2019-03-09T07:20:44.419Z,4.80
2019-03-09T07:21:44.409Z,4.70
2019-03-09T07:22:44.387Z,3.80
2019-03-09T07:23:44.399Z,4.10
2019-03-09T07:24:44.375Z,4.40
2019-03-09T07:25:44.345Z,4.40
2019-03-09T07:26:44.367Z,4.00
2019-03-09T07:27:44.343Z,4.10
2019-03-09T07:28:44.321Z,4.40
2019-03-09T07:29:44.312Z,4.30
2019-03-09T07:30:44.325Z,4.00
2019-03-09T07:31:44.311Z,4.10
2019-03-09T07:32:44.283Z,3.80
2019-03-09T07:33:44.294Z,4.00
2019-03-09T07:34:44.267Z,4.00
2019-03-09T07:35:44.243Z,4.20
2019-03-09T07:36:44.253Z,3.40
2019-03-09T07:37:44.222Z,4.20
2019-03-09T07:38:44.223Z,3.60
2019-03-09T07:39:44.294Z,4.00
2019-03-09T07:40:44.190Z,4.80
2019-03-09T07:41:44.204Z,4.10
2019-03-09T07:42:44.173Z,4.20
2019-03-09T07:43:44.168Z,4.40
2019-03-09T07:44:44.184Z,3.40
2019-03-09T07:45:44.166Z,4.20
2019-03-09T07:46:44.170Z,3.60
2019-03-09T07:47:44.115Z,3.10
2019-03-09T07:48:44.105Z,3.50
2019-03-09T07:49:44.096Z,3.70
2019-03-09T07:50:44.098Z,3.10
2019-03-09T07:51:44.106Z,3.20
2019-03-09T07:52:44.072Z,3.60
2019-03-09T07:53:44.110Z,3.20
2019-03-09T07:54:44.039Z,3.20
2019-03-09T07:55:44.040Z,3.40
2019-03-09T07:56:44.042Z,3.40
2019-03-09T07:57:44.040Z,3.30
2019-03-09T07:58:44.073Z,3.40
2019-03-09T07:59:43.979Z,3.30
2019-03-09T08:00:43.973Z,3.50
2019-03-09T08:01:43.979Z,3.20
2019-03-09T08:02:43.960Z,2.80
2019-03-09T08:03:43.937Z,2.90
2019-03-09T08:04:43.924Z,3.10
2019-03-09T08:05:43.925Z,2.90
2019-03-09T08:06:43.910Z,2.90
2019-03-09T08:07:43.921Z,2.80
2019-03-09T08:08:43.937Z,2.70
2019-03-09T08:09:43.877Z,2.50
2019-03-09T08:10:43.872Z,2.60
2019-03-09T08:11:43.853Z,2.50
2019-03-09T08:12:43.860Z,2.40
2019-03-09T08:13:43.865Z,2.80
2019-03-09T08:14:43.821Z,2.60
2019-03-09T08:15:43.812Z,2.80
2019-03-09T08:16:43.799Z,2.20
2019-03-09T08:17:43.793Z,2.50
2019-03-09T08:18:45.247Z,2.50
2019-03-09T08:19:43.781Z,2.00
2019-03-09T08:20:43.776Z,2.30
2019-03-09T08:21:43.820Z,1.70
2019-03-09T08:22:43.734Z,2.20
2019-03-09T08:23:43.741Z,1.90
2019-03-09T08:24:43.749Z,1.90
2019-03-09T08:25:43.708Z,2.10
2019-03-09T08:26:43.701Z,2.60
2019-03-09T08:27:43.680Z,2.60
2019-03-09T08:28:43.681Z,2.00
2019-03-09T08:29:43.670Z,2.10
2019-03-09T08:30:43.668Z,2.00
2019-03-09T08:31:43.641Z,2.10
2019-03-09T08:32:43.628Z,1.80
2019-03-09T08:33:43.613Z,1.80
2019-03-09T08:34:43.625Z,2.00
2019-03-09T08:35:43.608Z,1.90
2019-03-09T08:36:43.612Z,1.60
2019-03-09T08:37:43.615Z,2.00
2019-03-09T08:38:43.674Z,2.10
2019-03-09T08:39:43.566Z,2.00
2019-03-09T08:40:43.549Z,1.60
2019-03-09T08:41:43.542Z,1.50
2019-03-09T08:42:43.507Z,1.30
2019-03-09T08:43:43.544Z,1.40
2019-03-09T08:44:43.513Z,1.20
2019-03-09T08:45:43.477Z,1.40
2019-03-09T08:46:43.483Z,1.60
2019-03-09T08:47:51.573Z,1.40
2019-03-09T08:48:44.543Z,1.20
2019-03-09T08:49:43.470Z,1.70
2019-03-09T08:50:43.460Z,1.50
2019-03-09T08:51:43.412Z,1.70
2019-03-09T08:52:43.437Z,1.70
2019-03-09T08:53:43.391Z,1.60
2019-03-09T08:54:43.383Z,1.50
2019-03-09T08:55:43.387Z,1.70
2019-03-09T08:56:43.381Z,1.70
2019-03-09T08:57:43.357Z,1.60
2019-03-09T08:58:43.366Z,1.60
2019-03-09T08:59:43.371Z,1.60
2019-03-09T09:00:43.327Z,1.50
2019-03-09T09:01:43.323Z,1.60
2019-03-09T09:02:43.361Z,1.30
2019-03-09T09:03:43.305Z,1.40
2019-03-09T09:04:43.353Z,1.30
2019-03-09T09:05:43.311Z,1.40
2019-03-09T09:06:43.268Z,1.60
2019-03-09T09:07:43.411Z,1.30
2019-03-09T09:08:43.231Z,1.20
2019-03-09T09:09:43.231Z,1.30
2019-03-09T09:10:43.234Z,2.30
2019-03-09T09:11:43.194Z,1.40
2019-03-09T09:12:45.398Z,1.10
2019-03-09T09:13:43.218Z,1.30
2019-03-09T09:14:43.171Z,1.10
2019-03-09T09:15:43.178Z,1.10
2019-03-09T09:16:43.140Z,1.40
2019-03-09T09:17:43.131Z,1.40
2019-03-09T09:18:43.132Z,1.50
2019-03-09T09:19:43.188Z,1.20
2019-03-09T09:20:43.110Z,1.40
2019-03-09T09:21:43.132Z,1.30
2019-03-09T09:22:43.472Z,1.30
2019-03-09T09:23:43.145Z,1.50
2019-03-09T09:24:43.162Z,1.50
2019-03-09T09:25:43.038Z,1.20
2019-03-09T09:26:43.046Z,1.40
2019-03-09T09:27:43.028Z,1.30
2019-03-09T09:28:43.012Z,1.70
2019-03-09T09:29:43.002Z,1.40
2019-03-09T09:30:42.986Z,1.50
2019-03-09T09:31:42.982Z,1.60
2019-03-09T09:32:43.000Z,1.70
2019-03-09T09:33:42.955Z,1.60
2019-03-09T09:34:42.940Z,1.70
2019-03-09T09:35:42.929Z,1.50
2019-03-09T09:36:43.271Z,1.80
2019-03-09T09:37:42.930Z,1.90
2019-03-09T09:38:42.954Z,2.20
2019-03-09T09:39:42.941Z,1.70
2019-03-09T09:40:42.905Z,1.70
2019-03-09T09:41:42.998Z,2.00
2019-03-09T09:42:42.889Z,1.90
2019-03-09T09:43:42.927Z,2.30
2019-03-09T09:44:42.837Z,2.00
2019-03-09T09:45:42.828Z,2.70
2019-03-09T09:46:42.810Z,2.30
2019-03-09T09:47:42.857Z,2.10
2019-03-09T09:48:42.841Z,2.20
2019-03-09T09:49:42.840Z,2.10
2019-03-09T09:50:42.764Z,1.90
2019-03-09T09:51:42.778Z,1.70
2019-03-09T09:52:42.747Z,2.00
2019-03-09T09:53:42.940Z,2.20
2019-03-09T09:54:42.741Z,2.00
2019-03-09T09:55:42.751Z,2.10
2019-03-09T09:56:42.771Z,2.80
2019-03-09T09:57:42.691Z,2.00
2019-03-09T09:58:42.689Z,2.20
2019-03-09T09:59:42.665Z,2.20
2019-03-09T10:00:42.671Z,1.80
2019-03-09T10:01:42.653Z,2.70
2019-03-09T10:02:42.693Z,2.00
2019-03-09T10:03:42.618Z,1.90
2019-03-09T10:04:42.608Z,1.90
2019-03-09T10:05:42.610Z,2.30
2019-03-09T10:06:42.649Z,2.00
2019-03-09T10:07:42.636Z,2.10
2019-03-09T10:08:42.568Z,2.00
2019-03-09T10:09:42.575Z,2.40
2019-03-09T10:10:42.578Z,1.70
2019-03-09T10:11:42.545Z,1.80
2019-03-09T10:12:42.563Z,1.80
2019-03-09T10:13:42.518Z,2.00
2019-03-09T10:14:42.523Z,1.70
2019-03-09T10:15:42.493Z,1.80
2019-03-09T10:16:42.481Z,1.80
2019-03-09T10:17:42.530Z,2.10
2019-03-09T10:18:42.494Z,1.60
2019-03-09T10:19:42.447Z,2.00
2019-03-09T10:20:42.443Z,1.80
2019-03-09T10:21:42.429Z,2.00
2019-03-09T10:22:42.456Z,1.70
2019-03-09T10:23:42.474Z,1.50
2019-03-09T10:24:42.466Z,1.70
2019-03-09T10:25:42.389Z,2.00
2019-03-09T10:26:42.389Z,2.00
2019-03-09T10:27:42.361Z,1.60
2019-03-09T10:28:42.370Z,1.50
2019-03-09T10:29:42.339Z,2.00
2019-03-09T10:30:42.364Z,2.00
2019-03-09T10:31:42.339Z,2.60
2019-03-09T10:32:42.315Z,2.00
2019-03-09T10:33:42.290Z,2.20
2019-03-09T10:34:42.285Z,2.00
2019-03-09T10:35:42.289Z,1.90
2019-03-09T10:36:45.041Z,2.20
2019-03-09T10:37:42.250Z,1.90
2019-03-09T10:38:42.252Z,1.80
2019-03-09T10:39:42.239Z,1.90
2019-03-09T10:40:42.242Z,1.90
2019-03-09T10:41:42.237Z,1.90
2019-03-09T10:42:42.385Z,1.80
2019-03-09T10:43:42.184Z,1.70
2019-03-09T10:44:42.174Z,1.90
2019-03-09T10:45:42.171Z,1.90
2019-03-09T10:46:42.185Z,1.70
2019-03-09T10:47:42.153Z,2.00
2019-03-09T10:48:42.192Z,2.00
2019-03-09T10:49:42.127Z,1.90
2019-03-09T10:50:42.131Z,1.80
2019-03-09T10:51:42.156Z,1.60
2019-03-09T10:52:42.124Z,1.10
2019-03-09T10:53:42.139Z,1.40
2019-03-09T10:54:42.060Z,1.60
2019-03-09T10:55:42.721Z,1.80
2019-03-09T10:56:42.051Z,1.80
2019-03-09T10:57:42.152Z,2.20
2019-03-09T10:58:42.071Z,1.70
2019-03-09T10:59:42.057Z,1.70
2019-03-09T11:00:42.069Z,1.80
2019-03-09T11:01:42.007Z,1.80
2019-03-09T11:02:42.020Z,1.80
2019-03-09T11:03:41.974Z,1.80
2019-03-09T11:04:41.956Z,2.70
2019-03-09T11:05:41.939Z,1.90
2019-03-09T11:06:41.928Z,2.00
2019-03-09T11:07:41.916Z,1.70
2019-03-09T11:08:41.948Z,2.10
2019-03-09T11:09:44.116Z,1.80
2019-03-09T11:10:41.936Z,1.80
2019-03-09T11:11:41.884Z,1.90
2019-03-09T11:12:41.859Z,1.90
2019-03-09T11:13:51.495Z,1.70
2019-03-09T11:14:42.866Z,1.80
2019-03-09T11:15:41.833Z,1.50
2019-03-09T11:16:41.811Z,1.70
2019-03-09T11:17:41.822Z,1.90
2019-03-09T11:18:41.825Z,1.90
2019-03-09T11:19:43.201Z,2.40
2019-03-09T11:20:41.787Z,1.60
2019-03-09T11:21:41.755Z,2.40
2019-03-09T11:22:41.744Z,1.90
2019-03-09T11:23:41.804Z,2.20
2019-03-09T11:24:41.747Z,2.00
2019-03-09T11:25:41.735Z,1.90
2019-03-09T11:26:41.792Z,1.80
2019-03-09T11:27:41.695Z,2.10
2019-03-09T11:28:41.685Z,1.90
2019-03-09T11:29:41.665Z,1.80
2019-03-09T11:30:41.676Z,2.40
2019-03-09T11:31:41.888Z,2.20
2019-03-09T11:32:41.640Z,2.00
2019-03-09T11:33:41.623Z,2.50
2019-03-09T11:34:41.617Z,2.30
2019-03-09T11:35:41.629Z,2.20
2019-03-09T11:36:41.639Z,2.30
2019-03-09T11:37:41.686Z,1.90
2019-03-09T11:38:41.642Z,2.00
2019-03-09T11:39:41.555Z,1.80
2019-03-09T11:40:41.630Z,1.90
2019-03-09T11:41:41.543Z,2.20
2019-03-09T11:42:41.558Z,2.00
2019-03-09T11:43:41.532Z,2.30
2019-03-09T11:44:41.514Z,2.20
2019-03-09T11:45:41.492Z,1.80
2019-03-09T11:46:41.479Z,1.90
2019-03-09T11:47:41.585Z,1.90
2019-03-09T11:48:41.473Z,2.10
2019-03-09T11:49:41.466Z,1.70
2019-03-09T11:50:41.435Z,1.80
2019-03-09T11:51:41.420Z,1.90
2019-03-09T11:52:41.413Z,2.10
2019-03-09T11:53:41.450Z,1.70
2019-03-09T11:54:41.431Z,2.00
2019-03-09T11:55:41.386Z,1.70
2019-03-09T11:56:41.366Z,1.80
2019-03-09T11:57:41.358Z,2.40
2019-03-09T11:58:41.477Z,1.40
2019-03-09T11:59:41.357Z,2.00
2019-03-09T12:00:41.328Z,1.60
2019-03-09T12:01:41.344Z,1.60
2019-03-09T12:02:41.339Z,1.70
2019-03-09T12:03:41.363Z,1.90
2019-03-09T12:04:46.626Z,2.00
2019-03-09T12:05:42.398Z,2.10
2019-03-09T12:06:41.283Z,2.10
2019-03-09T12:09:25.515Z,2.20
2019-03-09T12:10:25.527Z,1.80
2019-03-09T12:11:25.419Z,2.10
2019-03-09T12:12:25.467Z,1.70
2019-03-09T12:13:25.407Z,2.00
2019-03-09T12:14:25.394Z,2.00
2019-03-09T12:15:25.388Z,2.00
2019-03-09T12:16:25.358Z,2.30
2019-03-09T12:17:25.409Z,2.20
2019-03-09T12:18:25.362Z,2.10
2019-03-09T12:19:25.341Z,2.10
2019-03-09T12:20:25.341Z,2.60
2019-03-09T12:21:25.326Z,2.00
2019-03-09T12:22:25.335Z,2.20
2019-03-09T12:23:25.320Z,2.40
2019-03-09T12:24:25.292Z,2.40
2019-03-09T12:25:25.316Z,2.10
2019-03-09T12:26:25.368Z,1.90
2019-03-09T12:27:25.289Z,2.50
2019-03-09T12:28:25.272Z,2.30
2019-03-09T12:29:25.233Z,2.70
2019-03-09T12:30:25.272Z,2.10
2019-03-09T12:31:25.235Z,2.10
2019-03-09T12:32:25.196Z,2.50
2019-03-09T12:33:25.189Z,1.80
2019-03-09T12:34:25.177Z,1.90
2019-03-09T12:35:25.182Z,2.20
2019-03-09T12:36:25.162Z,2.30
2019-03-09T12:37:25.138Z,2.20
2019-03-09T12:38:25.145Z,2.20
2019-03-09T12:39:25.164Z,2.10
2019-03-09T12:40:25.207Z,2.00
2019-03-09T12:41:25.147Z,2.00
2019-03-09T12:42:25.288Z,2.20
2019-03-09T12:43:25.153Z,2.10
2019-03-09T12:44:25.173Z,2.40
2019-03-09T12:45:25.097Z,2.60
2019-03-09T12:46:25.050Z,2.50
2019-03-09T12:47:25.064Z,2.40
2019-03-09T12:48:25.092Z,2.80
2019-03-09T12:49:25.036Z,2.40
2019-03-09T12:50:25.005Z,2.50
2019-03-09T12:51:25.033Z,2.40
2019-03-09T12:52:24.985Z,2.80
2019-03-09T12:53:24.969Z,2.50
2019-03-09T12:54:24.989Z,3.10
2019-03-09T12:55:24.965Z,2.40
2019-03-09T12:56:24.941Z,2.40
2019-03-09T12:57:24.923Z,1.90
2019-03-09T12:58:24.912Z,2.40
2019-03-09T12:59:24.948Z,2.40
2019-03-09T13:00:24.895Z,2.40
2019-03-09T13:01:24.890Z,3.20
2019-03-09T13:02:24.883Z,2.60
2019-03-09T13:03:24.958Z,2.10
2019-03-09T13:04:24.853Z,2.60
2019-03-09T13:05:25.471Z,2.10
2019-03-09T13:06:24.874Z,2.40
2019-03-09T13:07:24.818Z,2.60
2019-03-09T13:08:24.810Z,2.30
2019-03-09T13:09:24.793Z,2.10
2019-03-09T13:10:24.789Z,2.60
2019-03-09T13:11:24.803Z,2.60
2019-03-09T13:12:24.818Z,2.10
2019-03-09T13:13:24.815Z,2.20
2019-03-09T13:14:24.788Z,2.80
2019-03-09T13:15:24.732Z,2.50
2019-03-09T13:16:24.872Z,2.20
2019-03-09T13:17:24.801Z,1.90
2019-03-09T13:18:24.691Z,2.60
2019-03-09T13:19:24.789Z,2.60
2019-03-09T13:20:24.768Z,2.20